createdAt,value
2023-04-01T00:01:07.070Z,100.00
2023-04-01T00:03:34.967Z,100.00
2023-04-01T00:06:02.565Z,100.00
2023-04-01T00:08:29.838Z,100.00
2023-04-01T00:10:57.878Z,100.00
2023-04-01T00:13:26.621Z,100.00
2023-04-01T00:15:54.638Z,100.00
2023-04-01T00:18:21.731Z,100.00
2023-04-01T00:20:49.512Z,100.00
2023-04-01T00:23:16.683Z,100.00
2023-04-01T00:25:43.488Z,100.00
2023-04-01T00:28:10.641Z,100.00
2023-04-01T00:30:38.146Z,100.00
2023-04-01T00:33:05.008Z,100.00
2023-04-01T00:35:33.402Z,100.00
2023-04-01T00:38:00.084Z,100.00
2023-04-01T00:40:34.014Z,100.00
2023-04-01T00:43:01.290Z,100.00
2023-04-01T00:45:39.606Z,100.00
2023-04-01T00:48:17.898Z,100.00
2023-04-01T00:50:50.146Z,100.00
2023-04-01T00:53:18.855Z,100.00
2023-04-01T00:55:56.334Z,100.00
2023-04-01T00:58:25.889Z,100.00
2023-04-01T01:00:53.223Z,100.00
2023-04-01T01:03:19.957Z,100.00
2023-04-01T01:06:13.891Z,100.00
2023-04-01T01:08:49.687Z,100.00
2023-04-01T01:11:25.246Z,100.00
2023-04-01T01:14:03.960Z,100.00
2023-04-01T01:16:33.173Z,100.00
2023-04-01T01:19:11.542Z,100.00
2023-04-01T01:21:50.457Z,100.00
2023-04-01T01:24:50.401Z,100.00
2023-04-01T01:27:19.592Z,100.00
2023-04-01T01:29:52.204Z,100.00
2023-04-01T01:32:40.430Z,100.00
2023-04-01T01:35:28.847Z,100.00
2023-04-01T01:38:00.585Z,100.00
2023-04-01T01:40:29.956Z,100.00
2023-04-01T01:43:01.450Z,100.00
2023-04-01T01:45:31.491Z,100.00
2023-04-01T01:48:00.859Z,100.00
2023-04-01T01:50:28.734Z,100.00
2023-04-01T01:53:07.743Z,100.00
2023-04-01T01:55:37.418Z,100.00
2023-04-01T01:58:08.526Z,100.00
2023-04-01T02:00:36.547Z,100.00
2023-04-01T02:03:04.932Z,100.00
2023-04-01T02:05:32.838Z,100.00
2023-04-01T02:08:16.203Z,100.00
2023-04-01T02:10:48.237Z,100.00
2023-04-01T02:13:24.625Z,100.00
2023-04-01T02:15:53.679Z,100.00
2023-04-01T02:18:21.579Z,100.00
2023-04-01T02:20:50.161Z,100.00
2023-04-01T02:23:16.841Z,100.00
2023-04-01T02:25:45.974Z,100.00
2023-04-01T02:28:15.400Z,100.00
2023-04-01T02:30:43.783Z,100.00
2023-04-01T02:33:11.119Z,100.00
2023-04-01T02:35:38.315Z,100.00
2023-04-01T02:38:06.849Z,100.00
2023-04-01T02:40:49.540Z,100.00
2023-04-01T02:43:17.240Z,100.00
2023-04-01T02:45:44.392Z,100.00
2023-04-01T02:48:10.987Z,100.00
2023-04-01T02:50:37.479Z,100.00
2023-04-01T02:53:04.860Z,100.00
2023-04-01T02:55:32.328Z,100.00
2023-04-01T02:57:59.529Z,100.00
2023-04-01T03:00:27.018Z,100.00
2023-04-01T03:02:53.889Z,100.00
2023-04-01T03:05:21.177Z,100.00
2023-04-01T03:07:47.665Z,100.00
2023-04-01T03:10:14.419Z,100.00
2023-04-01T03:12:41.376Z,100.00
2023-04-01T03:15:10.688Z,100.00
2023-04-01T03:17:40.084Z,100.00
2023-04-01T03:20:09.535Z,100.00
2023-04-01T03:22:36.324Z,100.00
2023-04-01T03:25:05.718Z,100.00
2023-04-01T03:27:32.594Z,100.00
2023-04-01T03:29:59.200Z,100.00
2023-04-01T03:32:29.047Z,100.00
2023-04-01T03:34:55.628Z,100.00
2023-04-01T03:37:24.487Z,100.00
2023-04-01T03:39:52.022Z,100.00
2023-04-01T03:42:18.823Z,100.00
2023-04-01T03:44:45.457Z,100.00
2023-04-01T03:47:12.783Z,100.00
2023-04-01T03:49:39.241Z,100.00
2023-04-01T03:52:10.191Z,100.00
2023-04-01T03:54:36.913Z,100.00
2023-04-01T03:57:03.634Z,100.00
2023-04-01T03:59:30.279Z,100.00
2023-04-01T04:01:56.838Z,100.00
2023-04-01T04:04:23.493Z,100.00
2023-04-01T04:06:50.015Z,100.00
2023-04-01T04:09:16.921Z,100.00
2023-04-01T04:11:43.345Z,100.00
2023-04-01T04:14:09.939Z,100.00
2023-04-01T04:16:39.730Z,100.00
2023-04-01T04:19:06.576Z,100.00
2023-04-01T04:21:33.377Z,100.00
2023-04-01T04:24:01.692Z,100.00
2023-04-01T04:26:35.440Z,100.00
2023-04-01T04:29:03.209Z,100.00
2023-04-01T04:31:30.622Z,100.00
2023-04-01T04:34:01.908Z,100.00
2023-04-01T04:36:30.611Z,100.00
2023-04-01T04:38:58.976Z,100.00
2023-04-01T04:41:26.813Z,100.00
2023-04-01T04:43:55.617Z,100.00
2023-04-01T04:46:23.972Z,100.00
2023-04-01T04:48:55.978Z,100.00
2023-04-01T04:51:23.003Z,100.00
2023-04-01T04:53:51.488Z,100.00
2023-04-01T04:56:22.219Z,100.00
2023-04-01T04:58:57.340Z,100.00
2023-04-01T05:01:28.907Z,100.00
2023-04-01T05:03:55.626Z,100.00
2023-04-01T05:06:23.578Z,100.00
2023-04-01T05:08:50.389Z,100.00
2023-04-01T05:11:19.359Z,100.00
2023-04-01T05:13:49.177Z,100.00
2023-04-01T05:16:19.228Z,100.00
2023-04-01T05:18:46.414Z,100.00
2023-04-01T05:21:15.549Z,100.00
2023-04-01T05:23:43.045Z,100.00
2023-04-01T05:26:15.134Z,100.00
2023-04-01T05:28:41.907Z,100.00
2023-04-01T05:31:14.538Z,100.00
2023-04-01T05:33:44.417Z,100.00
2023-04-01T05:36:16.698Z,100.00
2023-04-01T05:38:46.676Z,100.00
2023-04-01T05:41:14.802Z,100.00
2023-04-01T05:43:44.778Z,100.00
2023-04-01T05:46:32.310Z,100.00
2023-04-01T05:49:19.142Z,100.00
2023-04-01T05:51:46.020Z,100.00
2023-04-01T05:54:12.592Z,100.00
2023-04-01T05:56:39.756Z,100.00
2023-04-01T05:59:06.504Z,100.00
2023-04-01T06:01:33.010Z,100.00
2023-04-01T06:03:59.746Z,100.00
2023-04-01T06:06:30.610Z,100.00
2023-04-01T06:09:14.958Z,100.00
2023-04-01T06:12:18.777Z,100.00
2023-04-01T06:15:11.630Z,100.00
2023-04-01T06:17:41.559Z,100.00
2023-04-01T06:20:45.200Z,100.00
2023-04-01T06:23:19.144Z,100.00
2023-04-01T06:26:01.169Z,100.00
2023-04-01T06:28:46.261Z,100.00
2023-04-01T06:31:31.041Z,100.00
2023-04-01T06:34:16.398Z,100.00
2023-04-01T06:37:20.687Z,100.00
2023-04-01T06:40:04.553Z,100.00
2023-04-01T06:42:41.517Z,100.00
2023-04-01T06:45:38.859Z,100.00
2023-04-01T06:48:43.232Z,100.00
2023-04-01T06:51:58.676Z,100.00
2023-04-01T06:55:02.113Z,100.00
2023-04-01T06:58:01.686Z,100.00
2023-04-01T07:00:33.772Z,100.00
2023-04-01T07:03:11.609Z,100.00
2023-04-01T07:05:38.625Z,100.00
2023-04-01T07:08:14.374Z,100.00
2023-04-01T07:10:47.013Z,100.00
2023-04-01T07:13:53.746Z,100.00
2023-04-01T07:16:39.497Z,100.00
2023-04-01T07:19:13.144Z,100.00
2023-04-01T07:21:57.205Z,100.00
2023-04-01T07:24:44.800Z,100.00
2023-04-01T07:27:14.453Z,100.00
2023-04-01T07:29:42.418Z,100.00
2023-04-01T07:32:27.842Z,100.00
2023-04-01T07:35:16.324Z,100.00
2023-04-01T07:37:50.777Z,100.00
2023-04-01T07:40:46.748Z,100.00
2023-04-01T07:43:13.367Z,100.00
2023-04-01T07:46:34.353Z,100.00
2023-04-01T07:49:28.895Z,100.00
2023-04-01T07:52:09.974Z,100.00
2023-04-01T07:54:54.714Z,100.00
2023-04-01T07:57:28.606Z,100.00
2023-04-01T08:00:19.669Z,100.00
2023-04-01T08:03:34.484Z,100.00
2023-04-01T08:06:13.149Z,100.00
2023-04-01T08:09:08.752Z,100.00
2023-04-01T08:12:25.023Z,100.00
2023-04-01T08:15:15.742Z,100.00
2023-04-01T08:18:35.813Z,100.00
2023-04-01T08:21:08.494Z,100.00
2023-04-01T08:23:41.203Z,100.00
2023-04-01T08:26:14.833Z,100.00
2023-04-01T08:28:55.822Z,100.00
2023-04-01T08:31:34.202Z,100.00
2023-04-01T08:34:03.694Z,100.00
2023-04-01T08:36:37.329Z,100.00
2023-04-01T08:39:30.182Z,100.00
2023-04-01T08:42:31.360Z,100.00
2023-04-01T08:45:34.541Z,100.00
2023-04-01T08:48:17.699Z,100.00
2023-04-01T08:51:05.178Z,100.00
2023-04-01T08:54:11.950Z,100.00
2023-04-01T08:56:48.832Z,100.00
2023-04-01T08:59:38.155Z,100.00
2023-04-01T09:02:55.179Z,100.00
2023-04-01T09:05:30.239Z,100.00
2023-04-01T09:08:15.460Z,100.00
2023-04-01T09:11:24.191Z,100.00
2023-04-01T09:14:18.644Z,100.00
2023-04-01T09:17:25.622Z,100.00
2023-04-01T09:20:28.896Z,100.00
2023-04-01T09:23:29.174Z,100.00
2023-04-01T09:26:11.720Z,100.00
2023-04-01T09:28:56.688Z,100.00
2023-04-01T09:31:51.275Z,100.00
2023-04-01T09:35:03.702Z,100.00
2023-04-01T09:37:47.982Z,100.00
2023-04-01T09:40:27.127Z,100.00
2023-04-01T09:43:22.352Z,100.00
2023-04-01T09:45:58.530Z,100.00
2023-04-01T09:49:02.318Z,100.00
2023-04-01T09:51:52.692Z,100.00
2023-04-01T09:54:37.240Z,100.00
2023-04-01T09:57:22.259Z,100.00
2023-04-01T10:00:22.734Z,100.00
2023-04-01T10:03:09.955Z,100.00
2023-04-01T10:06:14.257Z,100.00
2023-04-01T10:09:18.146Z,100.00
2023-04-01T10:12:14.030Z,100.00
2023-04-01T10:15:08.688Z,100.00
2023-04-01T10:18:00.431Z,100.00
2023-04-01T10:20:40.816Z,100.00
2023-04-01T10:23:32.141Z,100.00
2023-04-01T10:26:29.981Z,100.00
2023-04-01T10:29:32.940Z,100.00
2023-04-01T10:32:15.826Z,100.00
2023-04-01T10:35:19.724Z,99.99
2023-04-01T10:38:04.701Z,99.56
2023-04-01T10:40:59.840Z,98.98
2023-04-01T10:44:22.883Z,99.73
2023-04-01T10:47:11.264Z,98.76
2023-04-01T10:49:44.428Z,98.70
2023-04-01T10:52:23.575Z,98.31
2023-04-01T10:55:46.581Z,98.44
2023-04-01T10:59:05.509Z,98.11
2023-04-01T11:02:19.617Z,97.11
2023-04-01T11:05:32.491Z,97.56
2023-04-01T11:08:51.105Z,96.64
2023-04-01T11:11:18.526Z,96.30
2023-04-01T11:14:03.795Z,97.03
2023-04-01T11:16:32.990Z,96.97
2023-04-01T11:19:18.121Z,97.55
2023-04-01T11:22:18.738Z,97.78
2023-04-01T11:25:21.401Z,98.21
2023-04-01T11:28:25.864Z,98.10
2023-04-01T11:30:59.678Z,98.54
2023-04-01T11:33:37.995Z,98.45
2023-04-01T11:36:32.171Z,98.28
2023-04-01T11:39:21.511Z,97.81
2023-04-01T11:42:03.247Z,97.29
2023-04-01T11:45:07.382Z,95.15
2023-04-01T11:47:53.661Z,95.41
2023-04-01T11:50:41.324Z,95.49
2023-04-01T11:53:26.921Z,95.42
2023-04-01T11:56:12.593Z,95.35
2023-04-01T11:58:52.143Z,95.25
2023-04-01T12:01:31.344Z,95.57
2023-04-01T12:04:19.258Z,95.91
2023-04-01T12:07:13.866Z,96.39
2023-04-01T12:09:48.321Z,96.87
2023-04-01T12:12:57.986Z,97.60
2023-04-01T12:15:38.321Z,97.43
2023-04-01T12:18:25.002Z,97.91
2023-04-01T12:21:00.128Z,97.57
2023-04-01T12:23:52.626Z,97.82
2023-04-01T12:26:43.080Z,97.40
2023-04-01T12:29:35.834Z,96.95
2023-04-01T12:32:34.908Z,97.73
2023-04-01T12:35:12.919Z,98.03
2023-04-01T12:37:52.824Z,97.94
2023-04-01T12:40:22.151Z,97.93
2023-04-01T12:43:22.796Z,98.75
2023-04-01T12:46:10.075Z,98.80
2023-04-01T12:48:57.954Z,98.51
2023-04-01T12:51:47.326Z,98.56
2023-04-01T12:54:25.895Z,98.74
2023-04-01T12:57:16.776Z,99.34
2023-04-01T12:59:46.275Z,99.07
2023-04-01T13:02:22.891Z,98.86
2023-04-01T13:05:25.384Z,98.51
2023-04-01T13:08:35.680Z,97.94
2023-04-01T13:11:18.465Z,97.02
2023-04-01T13:14:11.896Z,98.42
2023-04-01T13:17:06.026Z,98.46
2023-04-01T13:19:32.454Z,97.11
2023-04-01T13:22:17.225Z,97.68
2023-04-01T13:24:59.689Z,97.22
2023-04-01T13:27:34.946Z,97.69
2023-04-01T13:30:45.705Z,97.87
2023-04-01T13:33:23.814Z,98.98
2023-04-01T13:36:16.454Z,99.64
2023-04-01T13:39:16.509Z,99.55
2023-04-01T13:42:12.450Z,100.00
2023-04-01T13:44:54.121Z,100.00
2023-04-01T13:47:29.296Z,100.00
2023-04-01T13:50:08.685Z,100.00
2023-04-01T13:52:43.266Z,100.00
2023-04-01T13:55:36.968Z,100.00
2023-04-01T13:58:21.858Z,100.00
2023-04-01T14:00:55.224Z,100.00
2023-04-01T14:03:59.611Z,100.00
2023-04-01T14:06:47.984Z,100.00
2023-04-01T14:09:24.727Z,100.00
2023-04-01T14:12:28.918Z,100.00
2023-04-01T14:15:12.306Z,100.00
2023-04-01T14:17:45.679Z,100.00
2023-04-01T14:20:44.169Z,100.00
2023-04-01T14:23:28.098Z,100.00
2023-04-01T14:26:19.467Z,100.00
2023-04-01T14:29:24.291Z,100.00
2023-04-01T14:31:58.373Z,100.00
2023-04-01T14:34:43.794Z,100.00
2023-04-01T14:37:37.888Z,100.00
2023-04-01T14:40:27.628Z,100.00
2023-04-01T14:43:04.833Z,100.00
2023-04-01T14:46:07.114Z,100.00
2023-04-01T14:48:39.231Z,100.00
2023-04-01T14:51:19.718Z,100.00
2023-04-01T14:54:18.305Z,100.00
2023-04-01T14:56:49.241Z,100.00
2023-04-01T14:59:28.835Z,100.00
2023-04-01T15:01:59.018Z,100.00
2023-04-01T15:05:11.468Z,100.00
2023-04-01T15:08:11.747Z,100.00
2023-04-01T15:10:54.673Z,100.00
2023-04-01T15:13:38.700Z,100.00
2023-04-01T15:16:23.822Z,100.00
2023-04-01T15:19:20.956Z,100.00
2023-04-01T15:22:29.892Z,100.00
2023-04-01T15:25:29.247Z,100.00
2023-04-01T15:28:10.690Z,100.00
2023-04-01T15:30:49.657Z,100.00
2023-04-01T15:33:30.022Z,100.00
2023-04-01T15:36:17.278Z,100.00
2023-04-01T15:38:58.185Z,100.00
2023-04-01T15:41:50.033Z,100.00
2023-04-01T15:44:28.641Z,100.00
2023-04-01T15:46:57.534Z,100.00
2023-04-01T15:49:43.245Z,100.00
2023-04-01T15:52:37.739Z,100.00
2023-04-01T15:55:21.737Z,100.00
2023-04-01T15:58:06.125Z,100.00
2023-04-01T16:00:34.829Z,100.00
2023-04-01T16:03:04.199Z,100.00
2023-04-01T16:06:11.458Z,100.00
2023-04-01T16:08:47.102Z,100.00
2023-04-01T16:11:44.357Z,100.00
2023-04-01T16:14:25.889Z,100.00
2023-04-01T16:17:17.012Z,100.00
2023-04-01T16:20:03.514Z,100.00
2023-04-01T16:22:38.313Z,100.00
2023-04-01T16:25:24.170Z,100.00
2023-04-01T16:28:28.270Z,100.00
2023-04-01T16:31:04.693Z,100.00
2023-04-01T16:33:53.074Z,100.00
2023-04-01T16:36:25.548Z,100.00
2023-04-01T16:38:51.943Z,100.00
2023-04-01T16:41:21.334Z,100.00
2023-04-01T16:43:58.039Z,100.00
2023-04-01T16:46:42.110Z,100.00
2023-04-01T16:49:23.580Z,100.00
2023-04-01T16:52:09.386Z,100.00
2023-04-01T16:55:03.049Z,100.00
2023-04-01T16:57:44.746Z,100.00
2023-04-01T17:00:46.669Z,100.00
2023-04-01T17:03:21.533Z,100.00
2023-04-01T17:06:01.967Z,100.00
2023-04-01T17:08:50.349Z,100.00
2023-04-01T17:11:48.666Z,100.00
2023-04-01T17:14:18.304Z,100.00
2023-04-01T17:16:53.654Z,100.00
2023-04-01T17:19:43.523Z,100.00
2023-04-01T17:22:22.259Z,100.00
2023-04-01T17:25:13.154Z,100.00
2023-04-01T17:27:57.705Z,100.00
2023-04-01T17:30:46.977Z,100.00
2023-04-01T17:33:19.222Z,100.00
2023-04-01T17:35:57.477Z,100.00
2023-04-01T17:38:51.111Z,100.00
2023-04-01T17:41:29.865Z,100.00
2023-04-01T17:43:59.449Z,100.00
2023-04-01T17:47:15.358Z,100.00
2023-04-01T17:49:53.542Z,100.00
2023-04-01T17:52:29.065Z,100.00
2023-04-01T17:55:33.081Z,100.00
2023-04-01T17:58:28.337Z,100.00
2023-04-01T18:01:01.397Z,100.00
2023-04-01T18:04:05.100Z,100.00
2023-04-01T18:06:46.234Z,100.00
2023-04-01T18:09:43.473Z,100.00
2023-04-01T18:12:43.633Z,100.00
2023-04-01T18:15:45.852Z,100.00
2023-04-01T18:18:12.683Z,100.00
2023-04-01T18:20:58.880Z,100.00
2023-04-01T18:23:37.054Z,100.00
2023-04-01T18:26:09.447Z,100.00
2023-04-01T18:28:58.155Z,100.00
2023-04-01T18:31:32.930Z,100.00
2023-04-01T18:34:09.634Z,100.00
2023-04-01T18:36:45.350Z,100.00
2023-04-01T18:39:17.453Z,100.00
2023-04-01T18:41:57.090Z,100.00
2023-04-01T18:44:31.128Z,100.00
2023-04-01T18:47:43.508Z,100.00
2023-04-01T18:50:25.343Z,100.00
2023-04-01T18:52:59.735Z,100.00
2023-04-01T18:55:43.856Z,100.00
2023-04-01T18:58:24.523Z,100.00
2023-04-01T19:01:12.059Z,100.00
2023-04-01T19:03:54.043Z,100.00
2023-04-01T19:06:36.034Z,100.00
2023-04-01T19:09:20.410Z,100.00
2023-04-01T19:12:03.558Z,100.00
2023-04-01T19:15:08.477Z,100.00
2023-04-01T19:18:03.677Z,100.00
2023-04-01T19:20:35.907Z,100.00
2023-04-01T19:23:21.507Z,100.00
2023-04-01T19:25:56.492Z,100.00
2023-04-01T19:28:51.847Z,100.00
2023-04-01T19:31:39.720Z,100.00
2023-04-01T19:34:28.703Z,100.00
2023-04-01T19:37:21.475Z,100.00
2023-04-01T19:40:06.835Z,100.00
2023-04-01T19:42:51.630Z,100.00
2023-04-01T19:45:25.024Z,100.00
2023-04-01T19:48:16.434Z,100.00
2023-04-01T19:51:10.925Z,100.00
2023-04-01T19:54:27.798Z,100.00
2023-04-01T19:57:12.416Z,100.00
2023-04-01T20:00:12.781Z,100.00
2023-04-01T20:02:54.971Z,100.00
2023-04-01T20:05:47.906Z,100.00
2023-04-01T20:08:51.741Z,100.00
2023-04-01T20:11:30.532Z,100.00
2023-04-01T20:14:22.521Z,100.00
2023-04-01T20:16:55.395Z,100.00
2023-04-01T20:19:42.641Z,100.00
2023-04-01T20:31:25.872Z,100.00
2023-04-01T20:34:02.647Z,100.00
2023-04-01T20:36:48.676Z,100.00
2023-04-01T20:49:00.715Z,100.00
2023-04-01T20:51:31.694Z,100.00
2023-04-01T20:54:34.021Z,99.90
2023-04-01T21:00:51.341Z,100.00
2023-04-01T21:03:47.476Z,100.00
2023-04-01T21:06:32.866Z,100.00
2023-04-01T21:09:21.167Z,100.00
2023-04-01T21:11:55.709Z,100.00
2023-04-01T21:15:06.870Z,100.00
2023-04-01T21:18:05.347Z,100.00
2023-04-01T21:21:13.832Z,100.00
2023-04-01T21:23:42.928Z,100.00
2023-04-01T21:26:43.800Z,100.00
2023-04-01T21:29:48.984Z,100.00
2023-04-01T21:32:47.666Z,100.00
2023-04-01T21:35:45.544Z,100.00
2023-04-01T21:38:39.153Z,100.00
2023-04-01T21:41:10.445Z,100.00
2023-04-01T21:44:01.842Z,100.00
2023-04-01T21:46:40.364Z,100.00
2023-04-01T21:49:16.040Z,100.00
2023-04-01T21:52:19.766Z,100.00
2023-04-01T21:54:59.661Z,100.00
2023-04-01T21:57:38.495Z,100.00
2023-04-01T22:00:30.303Z,100.00
2023-04-01T22:02:59.290Z,100.00
2023-04-01T22:05:31.757Z,100.00
2023-04-01T22:08:21.032Z,100.00
2023-04-01T22:11:02.240Z,100.00
2023-04-01T22:13:51.526Z,100.00
2023-04-01T22:16:44.239Z,100.00
2023-04-01T22:19:23.052Z,100.00
2023-04-01T22:22:06.881Z,100.00
2023-04-01T22:24:41.469Z,100.00
2023-04-01T22:27:27.189Z,100.00
2023-04-01T22:30:24.213Z,100.00
2023-04-01T22:33:27.265Z,100.00
2023-04-01T22:35:53.701Z,100.00
2023-04-01T22:38:45.213Z,100.00
2023-04-01T22:41:28.406Z,100.00
2023-04-01T22:43:57.775Z,100.00
2023-04-01T22:46:31.261Z,100.00
2023-04-01T22:49:10.528Z,100.00
2023-04-01T22:52:00.638Z,100.00
2023-04-01T22:54:43.078Z,100.00
2023-04-01T22:57:15.191Z,100.00
2023-04-01T23:00:09.174Z,100.00
2023-04-01T23:03:01.472Z,100.00
2023-04-01T23:05:29.679Z,100.00
2023-04-01T23:08:22.246Z,100.00
2023-04-01T23:10:55.450Z,100.00
2023-04-01T23:13:32.455Z,100.00
2023-04-01T23:15:59.730Z,100.00
2023-04-01T23:18:43.166Z,100.00
2023-04-01T23:21:29.942Z,100.00
2023-04-01T23:24:08.505Z,100.00
2023-04-01T23:26:53.187Z,100.00
2023-04-01T23:29:21.399Z,100.00
2023-04-01T23:31:57.262Z,100.00
2023-04-01T23:34:28.567Z,100.00
2023-04-01T23:37:10.638Z,100.00
2023-04-01T23:39:42.580Z,100.00
2023-04-01T23:42:20.591Z,100.00
2023-04-01T23:44:50.030Z,100.00
2023-04-01T23:47:21.459Z,100.00
2023-04-01T23:50:15.954Z,100.00
2023-04-01T23:53:13.659Z,100.00
2023-04-01T23:55:42.585Z,100.00
2023-04-01T23:58:19.480Z,100.00
